Aviation Digital Data Service (ADDS)

Output produced by TAFs form (2101 UTC 19 February 2017)
found at http://www.aviationweather.gov/adds/tafs/
 
TAF KDOV 191600Z 1916/2022 31012KT 9999 FEW200 QNH2982INS 
     BECMG 1922/1923 VRB06KT 9999 SKC QNH2990INS WND 35012KT AFT 2015 TX19/1920Z TN05/2008Z